sensor_id;sensor_type;location;lat;lon;timestamp;pressure;altitude;pressure_sealevel;temperature;humidity
78839;BME280;68405;47.190;27.558;2023-06-26T00:00:31;99446.56;;;18.42;66.51
78839;BME280;68405;47.190;27.558;2023-06-26T00:03:24;99448.49;;;18.37;67.13
78839;BME280;68405;47.190;27.558;2023-06-26T00:05:56;99445.92;;;18.34;66.40
78839;BME280;68405;47.190;27.558;2023-06-26T00:08:30;99444.82;;;18.30;67.13
78839;BME280;68405;47.190;27.558;2023-06-26T00:11:05;99443.93;;;18.25;67.17
78839;BME280;68405;47.190;27.558;2023-06-26T00:13:36;99445.98;;;18.21;67.11
78839;BME280;68405;47.190;27.558;2023-06-26T00:16:08;99440.07;;;18.15;67.22
78839;BME280;68405;47.190;27.558;2023-06-26T00:18:40;99437.46;;;18.10;67.33
78839;BME280;68405;47.190;27.558;2023-06-26T00:21:11;99438.37;;;18.05;67.35
78839;BME280;68405;47.190;27.558;2023-06-26T00:23:43;99438.48;;;18.01;66.86
78839;BME280;68405;47.190;27.558;2023-06-26T00:26:14;99433.06;;;17.96;67.38
78839;BME280;68405;47.190;27.558;2023-06-26T00:28:46;99433.38;;;17.91;67.63
78839;BME280;68405;47.190;27.558;2023-06-26T00:31:18;99430.85;;;17.87;67.82
78839;BME280;68405;47.190;27.558;2023-06-26T00:33:49;99430.95;;;17.83;67.82
78839;BME280;68405;47.190;27.558;2023-06-26T00:36:21;99431.02;;;17.80;67.81
78839;BME280;68405;47.190;27.558;2023-06-26T00:38:54;99431.63;;;17.76;68.29
78839;BME280;68405;47.190;27.558;2023-06-26T00:41:26;99423.91;;;17.73;67.96
78839;BME280;68405;47.190;27.558;2023-06-26T00:43:57;99422.29;;;17.71;68.45
78839;BME280;68405;47.190;27.558;2023-06-26T00:46:29;99418.95;;;17.69;68.24
78839;BME280;68405;47.190;27.558;2023-06-26T00:49:02;99419.08;;;17.67;67.95
78839;BME280;68405;47.190;27.558;2023-06-26T00:51:34;99418.23;;;17.64;68.32
78839;BME280;68405;47.190;27.558;2023-06-26T00:54:06;99417.39;;;17.61;67.88
78839;BME280;68405;47.190;27.558;2023-06-26T00:56:38;99416.19;;;17.58;68.15
78839;BME280;68405;47.190;27.558;2023-06-26T00:59:10;99416.41;;;17.55;68.20
78839;BME280;68405;47.190;27.558;2023-06-26T01:01:42;99419.41;;;17.53;68.78
78839;BME280;68405;47.190;27.558;2023-06-26T01:04:13;99420.04;;;17.51;69.81
78839;BME280;68405;47.190;27.558;2023-06-26T01:06:50;99412.34;;;17.48;69.92
78839;BME280;68405;47.190;27.558;2023-06-26T01:09:22;99409.07;;;17.45;69.66
78839;BME280;68405;47.190;27.558;2023-06-26T01:11:54;99407.20;;;17.41;69.67
78839;BME280;68405;47.190;27.558;2023-06-26T01:14:26;99408.52;;;17.38;69.66
78839;BME280;68405;47.190;27.558;2023-06-26T01:16:58;99411.41;;;17.34;69.91
78839;BME280;68405;47.190;27.558;2023-06-26T01:19:31;99405.63;;;17.29;69.75
78839;BME280;68405;47.190;27.558;2023-06-26T01:22:09;99403.85;;;17.24;69.95
78839;BME280;68405;47.190;27.558;2023-06-26T01:25:03;99400.80;;;17.20;69.81
78839;BME280;68405;47.190;27.558;2023-06-26T01:27:42;99400.81;;;17.15;70.39
78839;BME280;68405;47.190;27.558;2023-06-26T01:30:15;99401.78;;;17.11;69.91
78839;BME280;68405;47.190;27.558;2023-06-26T01:32:48;99399.82;;;17.06;69.97
78839;BME280;68405;47.190;27.558;2023-06-26T01:35:21;99403.08;;;17.02;69.80
78839;BME280;68405;47.190;27.558;2023-06-26T01:37:53;99396.84;;;16.99;69.95
78839;BME280;68405;47.190;27.558;2023-06-26T01:40:24;99395.35;;;16.95;70.25
78839;BME280;68405;47.190;27.558;2023-06-26T01:42:56;99395.28;;;16.90;70.91
78839;BME280;68405;47.190;27.558;2023-06-26T01:45:30;99397.15;;;16.86;70.20
78839;BME280;68405;47.190;27.558;2023-06-26T01:48:08;99395.36;;;16.81;70.19
78839;BME280;68405;47.190;27.558;2023-06-26T01:50:44;99397.04;;;16.77;70.22
78839;BME280;68405;47.190;27.558;2023-06-26T01:53:21;99394.48;;;16.73;70.94
78839;BME280;68405;47.190;27.558;2023-06-26T01:56:04;99396.34;;;16.69;70.72
78839;BME280;68405;47.190;27.558;2023-06-26T01:58:43;99398.55;;;16.65;70.61
78839;BME280;68405;47.190;27.558;2023-06-26T02:47:27;99396.34;;;16.35;71.97
78839;BME280;68405;47.190;27.558;2023-06-26T02:49:56;99392.85;;;16.37;72.63
78839;BME280;68405;47.190;27.558;2023-06-26T02:52:25;99386.85;;;16.40;72.01
78839;BME280;68405;47.190;27.558;2023-06-26T02:54:54;99386.77;;;16.44;73.00
78839;BME280;68405;47.190;27.558;2023-06-26T02:57:23;99384.94;;;16.46;72.84
78839;BME280;68405;47.190;27.558;2023-06-26T02:59:52;99387.02;;;16.49;72.27
78839;BME280;68405;47.190;27.558;2023-06-26T03:02:21;99386.33;;;16.51;72.32
78839;BME280;68405;47.190;27.558;2023-06-26T03:04:50;99385.55;;;16.55;72.72
78839;BME280;68405;47.190;27.558;2023-06-26T03:07:21;99385.52;;;16.58;72.63
78839;BME280;68405;47.190;27.558;2023-06-26T03:09:49;99389.28;;;16.62;72.93
78839;BME280;68405;47.190;27.558;2023-06-26T03:12:18;99393.69;;;16.67;72.62
78839;BME280;68405;47.190;27.558;2023-06-26T03:14:47;99391.67;;;16.71;72.14
78839;BME280;68405;47.190;27.558;2023-06-26T03:17:16;99393.13;;;16.75;73.11
78839;BME280;68405;47.190;27.558;2023-06-26T03:19:45;99388.44;;;16.80;72.98
78839;BME280;68405;47.190;27.558;2023-06-26T03:22:14;99389.98;;;16.83;73.54
78839;BME280;68405;47.190;27.558;2023-06-26T03:24:44;99390.94;;;16.87;72.87
78839;BME280;68405;47.190;27.558;2023-06-26T03:27:13;99393.30;;;16.94;72.63
78839;BME280;68405;47.190;27.558;2023-06-26T03:29:42;99391.31;;;17.00;72.80
78839;BME280;68405;47.190;27.558;2023-06-26T03:32:12;99388.98;;;17.05;72.84
78839;BME280;68405;47.190;27.558;2023-06-26T03:34:41;99385.65;;;17.13;72.40
78839;BME280;68405;47.190;27.558;2023-06-26T03:37:10;99387.39;;;17.21;72.18
78839;BME280;68405;47.190;27.558;2023-06-26T03:39:39;99389.85;;;17.28;72.13
78839;BME280;68405;47.190;27.558;2023-06-26T03:42:09;99389.51;;;17.33;72.43
78839;BME280;68405;47.190;27.558;2023-06-26T03:44:37;99391.63;;;17.38;72.81
78839;BME280;68405;47.190;27.558;2023-06-26T03:47:06;99387.36;;;17.46;72.45
78839;BME280;68405;47.190;27.558;2023-06-26T03:49:35;99384.19;;;17.56;71.95
78839;BME280;68405;47.190;27.558;2023-06-26T03:52:06;99386.56;;;17.72;71.53
78839;BME280;68405;47.190;27.558;2023-06-26T03:54:35;99386.58;;;17.94;71.57
78839;BME280;68405;47.190;27.558;2023-06-26T03:57:05;99383.55;;;18.40;70.96
78839;BME280;68405;47.190;27.558;2023-06-26T03:59:34;99387.34;;;19.27;69.60
78839;BME280;68405;47.190;27.558;2023-06-26T04:02:03;99391.30;;;20.96;66.41
78839;BME280;68405;47.190;27.558;2023-06-26T04:04:32;99388.46;;;23.23;60.86
78839;BME280;68405;47.190;27.558;2023-06-26T04:07:01;99387.75;;;25.11;59.54
78839;BME280;68405;47.190;27.558;2023-06-26T04:09:30;99384.13;;;26.89;53.85
78839;BME280;68405;47.190;27.558;2023-06-26T04:12:00;99386.59;;;28.45;51.74
78839;BME280;68405;47.190;27.558;2023-06-26T04:14:30;99384.59;;;29.84;50.44
78839;BME280;68405;47.190;27.558;2023-06-26T04:17:00;99386.64;;;30.97;46.92
78839;BME280;68405;47.190;27.558;2023-06-26T04:19:30;99389.45;;;32.05;45.32
78839;BME280;68405;47.190;27.558;2023-06-26T04:21:59;99388.36;;;32.95;44.11
78839;BME280;68405;47.190;27.558;2023-06-26T04:24:29;99389.98;;;33.52;40.99
78839;BME280;68405;47.190;27.558;2023-06-26T04:26:58;99385.89;;;34.17;39.73
78839;BME280;68405;47.190;27.558;2023-06-26T04:29:27;99390.84;;;34.55;38.94
78839;BME280;68405;47.190;27.558;2023-06-26T04:31:57;99385.69;;;35.15;36.61
78839;BME280;68405;47.190;27.558;2023-06-26T04:34:26;99387.89;;;36.14;35.86
78839;BME280;68405;47.190;27.558;2023-06-26T04:36:56;99390.09;;;36.99;34.34
78839;BME280;68405;47.190;27.558;2023-06-26T04:39:25;99397.80;;;37.47;32.14
78839;BME280;68405;47.190;27.558;2023-06-26T04:41:55;99394.29;;;38.14;31.48
78839;BME280;68405;47.190;27.558;2023-06-26T04:44:24;99395.20;;;38.89;31.84
78839;BME280;68405;47.190;27.558;2023-06-26T04:46:54;99396.02;;;39.82;28.34
78839;BME280;68405;47.190;27.558;2023-06-26T04:49:23;99398.09;;;40.40;28.96
78839;BME280;68405;47.190;27.558;2023-06-26T04:51:52;99400.44;;;40.72;26.95
78839;BME280;68405;47.190;27.558;2023-06-26T04:54:21;99394.48;;;41.05;28.25
78839;BME280;68405;47.190;27.558;2023-06-26T04:56:51;99391.19;;;41.43;27.07
78839;BME280;68405;47.190;27.558;2023-06-26T04:59:20;99392.58;;;41.54;24.83
78839;BME280;68405;47.190;27.558;2023-06-26T05:01:49;99391.95;;;41.69;23.57
78839;BME280;68405;47.190;27.558;2023-06-26T05:04:18;99389.59;;;42.25;22.45
78839;BME280;68405;47.190;27.558;2023-06-26T05:06:47;99386.34;;;42.81;21.70
78839;BME280;68405;47.190;27.558;2023-06-26T05:09:16;99391.52;;;43.08;22.10
78839;BME280;68405;47.190;27.558;2023-06-26T05:11:45;99391.54;;;43.28;20.91
78839;BME280;68405;47.190;27.558;2023-06-26T05:14:14;99393.59;;;43.13;21.28
78839;BME280;68405;47.190;27.558;2023-06-26T05:16:44;99397.27;;;43.14;20.59
78839;BME280;68405;47.190;27.558;2023-06-26T05:19:12;99400.36;;;43.42;20.96
78839;BME280;68405;47.190;27.558;2023-06-26T05:21:41;99404.58;;;43.63;19.74
78839;BME280;68405;47.190;27.558;2023-06-26T05:24:14;99405.86;;;43.76;20.23
78839;BME280;68405;47.190;27.558;2023-06-26T05:26:45;99410.70;;;44.22;20.21
78839;BME280;68405;47.190;27.558;2023-06-26T05:29:15;99415.52;;;45.19;19.19
78839;BME280;68405;47.190;27.558;2023-06-26T05:31:45;99416.81;;;45.69;17.27
78839;BME280;68405;47.190;27.558;2023-06-26T05:34:16;99415.95;;;46.30;17.12
78839;BME280;68405;47.190;27.558;2023-06-26T05:36:47;99414.91;;;46.94;16.74
78839;BME280;68405;47.190;27.558;2023-06-26T05:39:20;99413.84;;;46.98;16.16
78839;BME280;68405;47.190;27.558;2023-06-26T05:41:50;99414.70;;;46.82;17.47
78839;BME280;68405;47.190;27.558;2023-06-26T05:44:19;99416.95;;;45.10;17.79
78839;BME280;68405;47.190;27.558;2023-06-26T05:46:48;99415.67;;;43.10;19.43
78839;BME280;68405;47.190;27.558;2023-06-26T05:49:17;99411.16;;;41.75;19.88
78839;BME280;68405;47.190;27.558;2023-06-26T05:51:47;99406.42;;;41.40;19.30
78839;BME280;68405;47.190;27.558;2023-06-26T05:54:17;99407.98;;;40.24;20.31
78839;BME280;68405;47.190;27.558;2023-06-26T05:56:48;99409.48;;;39.15;21.13
78839;BME280;68405;47.190;27.558;2023-06-26T05:59:19;99415.33;;;38.11;22.20
78839;BME280;68405;47.190;27.558;2023-06-26T06:01:49;99409.76;;;37.01;23.00
78839;BME280;68405;47.190;27.558;2023-06-26T06:04:18;99410.15;;;35.82;24.27
78839;BME280;68405;47.190;27.558;2023-06-26T06:06:47;99409.35;;;34.73;25.04
78839;BME280;68405;47.190;27.558;2023-06-26T06:09:16;99410.85;;;34.04;26.18
78839;BME280;68405;47.190;27.558;2023-06-26T06:11:46;99405.23;;;33.38;26.69
78839;BME280;68405;47.190;27.558;2023-06-26T06:14:15;99413.34;;;32.67;27.19
78839;BME280;68405;47.190;27.558;2023-06-26T06:16:44;99406.66;;;31.83;28.51
78839;BME280;68405;47.190;27.558;2023-06-26T06:19:13;99408.19;;;31.02;29.27
78839;BME280;68405;47.190;27.558;2023-06-26T06:21:43;99414.68;;;30.25;30.21
78839;BME280;68405;47.190;27.558;2023-06-26T06:24:12;99413.79;;;29.96;31.22
78839;BME280;68405;47.190;27.558;2023-06-26T06:26:41;99415.45;;;29.73;31.24
78839;BME280;68405;47.190;27.558;2023-06-26T06:29:10;99415.27;;;29.37;32.08
78839;BME280;68405;47.190;27.558;2023-06-26T06:31:39;99416.50;;;29.25;32.93
78839;BME280;68405;47.190;27.558;2023-06-26T06:34:08;99415.91;;;28.88;32.63
78839;BME280;68405;47.190;27.558;2023-06-26T06:36:37;99416.95;;;28.50;33.97
78839;BME280;68405;47.190;27.558;2023-06-26T06:39:07;99413.38;;;28.14;34.21
78839;BME280;68405;47.190;27.558;2023-06-26T06:41:36;99414.91;;;28.09;34.92
78839;BME280;68405;47.190;27.558;2023-06-26T06:44:05;99415.73;;;28.85;34.35
78839;BME280;68405;47.190;27.558;2023-06-26T06:46:34;99414.48;;;29.00;34.14
78839;BME280;68405;47.190;27.558;2023-06-26T06:49:03;99417.71;;;29.01;34.57
78839;BME280;68405;47.190;27.558;2023-06-26T06:51:32;99418.23;;;29.04;34.65
78839;BME280;68405;47.190;27.558;2023-06-26T06:54:01;99413.88;;;29.16;34.93
78839;BME280;68405;47.190;27.558;2023-06-26T06:56:30;99418.25;;;29.25;34.37
78839;BME280;68405;47.190;27.558;2023-06-26T06:59:02;99416.72;;;29.11;34.77
78839;BME280;68405;47.190;27.558;2023-06-26T07:01:31;99419.57;;;28.90;35.22
78839;BME280;68405;47.190;27.558;2023-06-26T07:04:01;99418.04;;;28.98;35.30
78839;BME280;68405;47.190;27.558;2023-06-26T07:06:32;99420.45;;;29.66;35.07
78839;BME280;68405;47.190;27.558;2023-06-26T07:09:01;99418.41;;;30.78;33.99
78839;BME280;68405;47.190;27.558;2023-06-26T07:11:31;99419.20;;;32.99;31.54
78839;BME280;68405;47.190;27.558;2023-06-26T07:14:00;99417.37;;;34.83;29.56
78839;BME280;68405;47.190;27.558;2023-06-26T07:16:29;99417.52;;;36.13;28.55
78839;BME280;68405;47.190;27.558;2023-06-26T07:18:58;99410.98;;;35.35;28.55
78839;BME280;68405;47.190;27.558;2023-06-26T07:21:27;99417.41;;;34.57;28.24
78839;BME280;68405;47.190;27.558;2023-06-26T07:23:56;99415.52;;;34.20;28.69
78839;BME280;68405;47.190;27.558;2023-06-26T07:26:26;99412.85;;;35.48;27.11
78839;BME280;68405;47.190;27.558;2023-06-26T07:28:55;99419.45;;;37.42;25.15
78839;BME280;68405;47.190;27.558;2023-06-26T07:31:25;99417.93;;;36.35;25.87
78839;BME280;68405;47.190;27.558;2023-06-26T07:33:54;99416.11;;;36.99;25.19
78839;BME280;68405;47.190;27.558;2023-06-26T07:36:23;99419.23;;;39.56;22.49
78839;BME280;68405;47.190;27.558;2023-06-26T07:38:52;99419.25;;;41.57;20.90
78839;BME280;68405;47.190;27.558;2023-06-26T07:41:21;99420.25;;;42.97;19.99
78839;BME280;68405;47.190;27.558;2023-06-26T07:43:50;99422.36;;;44.06;18.32
78839;BME280;68405;47.190;27.558;2023-06-26T07:46:19;99423.96;;;45.08;17.88
78839;BME280;68405;47.190;27.558;2023-06-26T07:48:49;99421.04;;;45.51;16.71
78839;BME280;68405;47.190;27.558;2023-06-26T07:51:18;99421.38;;;45.59;16.14
78839;BME280;68405;47.190;27.558;2023-06-26T07:53:47;99418.59;;;44.85;16.94
78839;BME280;68405;47.190;27.558;2023-06-26T07:56:16;99415.48;;;44.60;17.00
78839;BME280;68405;47.190;27.558;2023-06-26T07:58:45;99420.36;;;44.55;16.72
78839;BME280;68405;47.190;27.558;2023-06-26T08:01:14;99422.44;;;43.59;17.64
78839;BME280;68405;47.190;27.558;2023-06-26T08:03:44;99421.89;;;43.54;17.82
78839;BME280;68405;47.190;27.558;2023-06-26T08:06:13;99415.86;;;44.36;16.61
78839;BME280;68405;47.190;27.558;2023-06-26T08:08:43;99414.45;;;45.11;15.87
78839;BME280;68405;47.190;27.558;2023-06-26T08:11:12;99419.44;;;45.52;15.14
78839;BME280;68405;47.190;27.558;2023-06-26T08:13:41;99421.14;;;45.95;15.02
78839;BME280;68405;47.190;27.558;2023-06-26T08:16:10;99414.17;;;46.37;14.48
78839;BME280;68405;47.190;27.558;2023-06-26T08:18:39;99416.40;;;46.33;14.53
78839;BME280;68405;47.190;27.558;2023-06-26T08:21:08;99411.23;;;44.89;15.43
78839;BME280;68405;47.190;27.558;2023-06-26T08:23:37;99411.30;;;42.49;16.03
78839;BME280;68405;47.190;27.558;2023-06-26T08:26:06;99406.55;;;42.07;16.42
78839;BME280;68405;47.190;27.558;2023-06-26T08:28:35;99409.80;;;41.69;16.32
78839;BME280;68405;47.190;27.558;2023-06-26T08:31:04;99410.98;;;41.17;16.39
78839;BME280;68405;47.190;27.558;2023-06-26T08:33:33;99410.74;;;41.40;16.29
78839;BME280;68405;47.190;27.558;2023-06-26T08:36:04;99407.95;;;42.32;15.66
78839;BME280;68405;47.190;27.558;2023-06-26T08:38:33;99405.94;;;42.94;14.96
78839;BME280;68405;47.190;27.558;2023-06-26T08:41:02;99402.50;;;43.42;14.45
78839;BME280;68405;47.190;27.558;2023-06-26T08:43:32;99402.88;;;43.76;14.39
78839;BME280;68405;47.190;27.558;2023-06-26T08:46:02;99403.20;;;44.28;14.03
78839;BME280;68405;47.190;27.558;2023-06-26T08:48:34;99399.02;;;44.39;13.79
78839;BME280;68405;47.190;27.558;2023-06-26T08:51:08;99403.61;;;43.16;15.03
78839;BME280;68405;47.190;27.558;2023-06-26T08:53:43;99405.23;;;43.62;14.52
78839;BME280;68405;47.190;27.558;2023-06-26T08:56:17;99405.38;;;43.98;13.95
78839;BME280;68405;47.190;27.558;2023-06-26T08:58:47;99407.55;;;44.20;13.76
78839;BME280;68405;47.190;27.558;2023-06-26T09:01:19;99398.20;;;44.35;13.51
78839;BME280;68405;47.190;27.558;2023-06-26T09:03:49;99394.41;;;44.35;13.34
78839;BME280;68405;47.190;27.558;2023-06-26T09:06:19;99395.93;;;44.58;13.16
78839;BME280;68405;47.190;27.558;2023-06-26T09:08:48;99389.08;;;44.62;13.33
78839;BME280;68405;47.190;27.558;2023-06-26T09:11:18;99389.42;;;44.66;13.45
78839;BME280;68405;47.190;27.558;2023-06-26T09:13:47;99394.33;;;44.60;12.89
78839;BME280;68405;47.190;27.558;2023-06-26T09:16:16;99395.61;;;44.16;12.73
78839;BME280;68405;47.190;27.558;2023-06-26T09:18:46;99390.48;;;43.91;12.94
78839;BME280;68405;47.190;27.558;2023-06-26T09:21:16;99392.00;;;43.70;12.63
78839;BME280;68405;47.190;27.558;2023-06-26T09:23:46;99392.34;;;43.33;12.51
78839;BME280;68405;47.190;27.558;2023-06-26T09:26:16;99390.02;;;43.35;12.56
78839;BME280;68405;47.190;27.558;2023-06-26T09:28:45;99387.02;;;43.22;12.46
78839;BME280;68405;47.190;27.558;2023-06-26T09:31:15;99383.14;;;42.92;12.80
78839;BME280;68405;47.190;27.558;2023-06-26T09:33:44;99385.54;;;42.79;12.90
78839;BME280;68405;47.190;27.558;2023-06-26T09:36:21;99384.69;;;42.90;13.33
78839;BME280;68405;47.190;27.558;2023-06-26T09:38:52;99381.27;;;43.07;13.41
78839;BME280;68405;47.190;27.558;2023-06-26T09:41:22;99378.09;;;42.40;13.88
78839;BME280;68405;47.190;27.558;2023-06-26T09:43:51;99373.64;;;41.19;14.69
78839;BME280;68405;47.190;27.558;2023-06-26T09:46:25;99381.53;;;41.48;14.32
78839;BME280;68405;47.190;27.558;2023-06-26T09:49:02;99377.42;;;41.94;13.91
78839;BME280;68405;47.190;27.558;2023-06-26T09:51:33;99376.31;;;41.68;13.81
78839;BME280;68405;47.190;27.558;2023-06-26T09:54:04;99375.96;;;40.64;14.26
78839;BME280;68405;47.190;27.558;2023-06-26T09:56:33;99369.60;;;41.00;13.90
78839;BME280;68405;47.190;27.558;2023-06-26T09:59:04;99372.99;;;41.47;13.80
78839;BME280;68405;47.190;27.558;2023-06-26T10:01:39;99362.77;;;41.40;13.81
78839;BME280;68405;47.190;27.558;2023-06-26T10:04:09;99366.27;;;40.42;14.58
78839;BME280;68405;47.190;27.558;2023-06-26T10:06:41;99367.13;;;39.28;15.26
78839;BME280;68405;47.190;27.558;2023-06-26T10:09:21;99368.30;;;38.37;16.14
78839;BME280;68405;47.190;27.558;2023-06-26T10:11:55;99363.34;;;38.15;16.36
78839;BME280;68405;47.190;27.558;2023-06-26T10:14:27;99363.21;;;37.91;16.53
78839;BME280;68405;47.190;27.558;2023-06-26T10:16:59;99359.03;;;38.28;16.60
78839;BME280;68405;47.190;27.558;2023-06-26T10:19:29;99356.47;;;38.00;16.75
78839;BME280;68405;47.190;27.558;2023-06-26T10:22:01;99356.06;;;38.79;16.09
78839;BME280;68405;47.190;27.558;2023-06-26T10:24:33;99351.30;;;39.11;16.38
78839;BME280;68405;47.190;27.558;2023-06-26T10:27:07;99358.91;;;38.80;16.58
78839;BME280;68405;47.190;27.558;2023-06-26T10:29:41;99352.48;;;39.54;15.96
78839;BME280;68405;47.190;27.558;2023-06-26T10:32:12;99347.67;;;39.82;15.64
78839;BME280;68405;47.190;27.558;2023-06-26T10:34:43;99344.92;;;40.19;15.72
78839;BME280;68405;47.190;27.558;2023-06-26T10:37:13;99348.02;;;40.09;16.08
78839;BME280;68405;47.190;27.558;2023-06-26T10:39:49;99355.57;;;39.01;16.39
78839;BME280;68405;47.190;27.558;2023-06-26T10:42:19;99357.45;;;38.12;16.60
78839;BME280;68405;47.190;27.558;2023-06-26T10:44:49;99354.02;;;37.75;16.90
78839;BME280;68405;47.190;27.558;2023-06-26T10:47:33;99347.02;;;38.58;16.73
78839;BME280;68405;47.190;27.558;2023-06-26T10:50:24;99342.41;;;39.45;16.00
78839;BME280;68405;47.190;27.558;2023-06-26T10:53:11;99334.66;;;40.03;15.44
78839;BME280;68405;47.190;27.558;2023-06-26T10:55:50;99328.48;;;39.97;15.34
78839;BME280;68405;47.190;27.558;2023-06-26T10:58:33;99330.61;;;39.00;15.50
78839;BME280;68405;47.190;27.558;2023-06-26T11:01:23;99333.07;;;39.09;14.98
78839;BME280;68405;47.190;27.558;2023-06-26T11:04:05;99337.26;;;39.26;14.59
78839;BME280;68405;47.190;27.558;2023-06-26T11:06:36;99335.95;;;39.36;14.45
78839;BME280;68405;47.190;27.558;2023-06-26T11:09:13;99325.13;;;39.72;14.59
78839;BME280;68405;47.190;27.558;2023-06-26T11:11:59;99325.86;;;39.96;14.32
78839;BME280;68405;47.190;27.558;2023-06-26T11:14:33;99328.70;;;40.02;14.64
78839;BME280;68405;47.190;27.558;2023-06-26T11:17:06;99328.69;;;39.28;14.89
78839;BME280;68405;47.190;27.558;2023-06-26T11:19:43;99334.41;;;37.98;15.38
78839;BME280;68405;47.190;27.558;2023-06-26T11:22:16;99336.73;;;37.88;15.87
78839;BME280;68405;47.190;27.558;2023-06-26T11:24:45;99336.50;;;37.25;16.22
78839;BME280;68405;47.190;27.558;2023-06-26T11:27:15;99333.38;;;37.73;15.81
78839;BME280;68405;47.190;27.558;2023-06-26T11:29:49;99325.86;;;38.20;15.96
78839;BME280;68405;47.190;27.558;2023-06-26T11:32:18;99329.45;;;38.05;16.02
78839;BME280;68405;47.190;27.558;2023-06-26T11:34:49;99325.30;;;37.27;16.61
78839;BME280;68405;47.190;27.558;2023-06-26T11:37:19;99320.87;;;36.45;17.42
78839;BME280;68405;47.190;27.558;2023-06-26T11:39:48;99320.30;;;35.97;17.80
78839;BME280;68405;47.190;27.558;2023-06-26T11:42:19;99309.36;;;35.57;18.04
78839;BME280;68405;47.190;27.558;2023-06-26T11:44:49;99313.79;;;35.86;17.90
78839;BME280;68405;47.190;27.558;2023-06-26T11:47:18;99318.33;;;35.58;18.30
78839;BME280;68405;47.190;27.558;2023-06-26T11:49:48;99310.89;;;35.87;18.03
78839;BME280;68405;47.190;27.558;2023-06-26T11:52:18;99313.19;;;36.44;18.28
78839;BME280;68405;47.190;27.558;2023-06-26T11:54:48;99310.59;;;36.97;17.77
78839;BME280;68405;47.190;27.558;2023-06-26T11:57:18;99315.65;;;37.42;17.72
78839;BME280;68405;47.190;27.558;2023-06-26T11:59:50;99306.42;;;37.71;17.08
78839;BME280;68405;47.190;27.558;2023-06-26T12:02:20;99303.68;;;37.73;16.90
78839;BME280;68405;47.190;27.558;2023-06-26T12:04:50;99303.00;;;37.64;16.40
78839;BME280;68405;47.190;27.558;2023-06-26T12:07:19;99304.38;;;37.63;16.70
78839;BME280;68405;47.190;27.558;2023-06-26T12:09:49;99299.49;;;37.95;16.47
78839;BME280;68405;47.190;27.558;2023-06-26T12:12:19;99298.64;;;37.90;16.40
78839;BME280;68405;47.190;27.558;2023-06-26T12:14:48;99302.39;;;37.83;16.58
78839;BME280;68405;47.190;27.558;2023-06-26T12:17:17;99298.48;;;37.86;16.31
78839;BME280;68405;47.190;27.558;2023-06-26T12:19:51;99304.55;;;37.69;16.68
78839;BME280;68405;47.190;27.558;2023-06-26T12:22:20;99307.48;;;37.51;16.41
78839;BME280;68405;47.190;27.558;2023-06-26T12:24:49;99299.23;;;37.43;16.55
78839;BME280;68405;47.190;27.558;2023-06-26T12:27:19;99309.39;;;36.76;16.52
78839;BME280;68405;47.190;27.558;2023-06-26T12:29:52;99304.08;;;36.69;17.05
78839;BME280;68405;47.190;27.558;2023-06-26T12:32:23;99302.63;;;36.62;17.23
78839;BME280;68405;47.190;27.558;2023-06-26T12:34:53;99298.41;;;36.51;17.22
78839;BME280;68405;47.190;27.558;2023-06-26T12:37:22;99303.20;;;35.77;17.38
78839;BME280;68405;47.190;27.558;2023-06-26T12:39:52;99295.69;;;35.20;18.10
78839;BME280;68405;47.190;27.558;2023-06-26T12:42:22;99298.01;;;35.17;18.49
78839;BME280;68405;47.190;27.558;2023-06-26T12:44:53;99302.13;;;35.32;18.36
78839;BME280;68405;47.190;27.558;2023-06-26T12:47:26;99305.27;;;35.48;18.31
78839;BME280;68405;47.190;27.558;2023-06-26T12:49:54;99304.34;;;35.56;18.51
78839;BME280;68405;47.190;27.558;2023-06-26T12:52:25;99302.41;;;35.58;18.69
78839;BME280;68405;47.190;27.558;2023-06-26T12:54:55;99300.13;;;35.48;18.75
78839;BME280;68405;47.190;27.558;2023-06-26T12:57:26;99301.29;;;35.08;18.83
78839;BME280;68405;47.190;27.558;2023-06-26T12:59:55;99301.41;;;34.81;18.91
78839;BME280;68405;47.190;27.558;2023-06-26T13:02:24;99301.02;;;34.37;19.36
78839;BME280;68405;47.190;27.558;2023-06-26T13:04:53;99304.30;;;34.12;19.25
78839;BME280;68405;47.190;27.558;2023-06-26T13:07:22;99301.54;;;33.97;19.56
78839;BME280;68405;47.190;27.558;2023-06-26T13:09:53;99297.01;;;34.18;19.49
78839;BME280;68405;47.190;27.558;2023-06-26T13:12:23;99294.26;;;34.22;19.91
78839;BME280;68405;47.190;27.558;2023-06-26T13:14:52;99298.08;;;34.09;19.45
78839;BME280;68405;47.190;27.558;2023-06-26T13:17:21;99301.23;;;33.84;19.43
78839;BME280;68405;47.190;27.558;2023-06-26T13:19:50;99299.70;;;33.63;19.09
78839;BME280;68405;47.190;27.558;2023-06-26T13:22:19;99300.06;;;33.37;18.92
78839;BME280;68405;47.190;27.558;2023-06-26T13:24:49;99296.97;;;33.13;18.55
78839;BME280;68405;47.190;27.558;2023-06-26T13:27:18;99294.91;;;32.92;18.70
78839;BME280;68405;47.190;27.558;2023-06-26T13:29:48;99288.64;;;32.83;18.89
78839;BME280;68405;47.190;27.558;2023-06-26T13:32:17;99291.43;;;32.77;19.29
78839;BME280;68405;47.190;27.558;2023-06-26T13:34:46;99292.13;;;32.60;19.98
78839;BME280;68405;47.190;27.558;2023-06-26T13:37:16;99290.61;;;32.54;20.43
78839;BME280;68405;47.190;27.558;2023-06-26T13:39:45;99291.63;;;32.44;20.45
78839;BME280;68405;47.190;27.558;2023-06-26T13:42:18;99289.86;;;32.39;20.81
78839;BME280;68405;47.190;27.558;2023-06-26T13:44:47;99289.41;;;32.31;21.41
78839;BME280;68405;47.190;27.558;2023-06-26T13:47:17;99291.31;;;32.02;21.33
78839;BME280;68405;47.190;27.558;2023-06-26T13:49:46;99291.39;;;31.70;21.70
78839;BME280;68405;47.190;27.558;2023-06-26T13:52:15;99293.70;;;31.56;22.05
78839;BME280;68405;47.190;27.558;2023-06-26T13:54:44;99281.48;;;31.45;22.03